Time;durP1;ratioP1;P1;durP2;ratioP2;P2;SDS_P1;SDS_P2;PMS_P1;PMS_P2;Temp;Humidity;BMP_temperature;BMP_pressure;BME280_temperature;BME280_humidity;BME280_pressure;Samples;Min_cycle;Max_cycle;Signal;HPM_P1;HPM_P2
2021/04/08 00:01:45;;;;;;;1.50;1.20;;;5.90;65.30;;;;;;5095471;28;20031;-86
2021/04/08 00:04:14;;;;;;;2.40;1.60;;;5.90;65.40;;;;;;5097133;28;20126;-86
2021/04/08 00:06:40;;;;;;;1.65;1.30;;;5.80;65.30;;;;;;5096786;28;20066;-85
2021/04/08 00:09:06;;;;;;;3.17;1.40;;;5.80;65.30;;;;;;5113138;28;20133;-86
2021/04/08 00:11:32;;;;;;;3.50;1.60;;;5.80;65.40;;;;;;5095408;28;20028;-86
2021/04/08 00:13:58;;;;;;;2.15;1.48;;;5.80;65.40;;;;;;5104944;27;20035;-86
2021/04/08 00:16:24;;;;;;;2.20;1.30;;;5.80;65.40;;;;;;5095276;28;20016;-85
2021/04/08 00:18:50;;;;;;;1.25;1.20;;;5.80;65.40;;;;;;5098019;27;20053;-87
2021/04/08 00:21:15;;;;;;;3.63;1.50;;;5.80;65.70;;;;;;5101033;28;20480;-86
2021/04/08 00:23:41;;;;;;;1.92;1.50;;;5.80;65.40;;;;;;5113285;28;20066;-85
2021/04/08 00:26:07;;;;;;;1.83;1.52;;;5.80;65.40;;;;;;5113168;28;20487;-85
2021/04/08 00:28:33;;;;;;;2.35;1.35;;;5.80;65.40;;;;;;5096625;28;20036;-86
2021/04/08 00:30:59;;;;;;;1.63;1.25;;;5.70;65.40;;;;;;5105857;28;20030;-86
2021/04/08 00:33:25;;;;;;;1.58;1.48;;;5.70;65.40;;;;;;5103394;28;20034;-85
2021/04/08 00:35:50;;;;;;;1.63;1.45;;;5.70;65.40;;;;;;5096265;28;20024;-85
2021/04/08 00:38:16;;;;;;;2.65;1.45;;;5.70;65.40;;;;;;5113135;28;20486;-86
2021/04/08 00:40:43;;;;;;;2.97;1.50;;;5.70;65.40;;;;;;5096249;28;20053;-85
2021/04/08 00:43:09;;;;;;;2.47;1.80;;;5.70;65.40;;;;;;5106926;28;20032;-86
2021/04/08 00:45:35;;;;;;;2.17;1.40;;;5.70;65.40;;;;;;5113391;28;20020;-85
2021/04/08 00:48:02;;;;;;;2.22;1.30;;;5.70;65.50;;;;;;5120257;27;20039;-85
2021/04/08 00:50:29;;;;;;;3.47;1.33;;;5.70;65.50;;;;;;5095915;28;20020;-86
2021/04/08 00:53:11;;;;;;;2.03;1.42;;;5.70;65.50;;;;;;5091627;28;20032;-86
2021/04/08 00:55:42;;;;;;;1.35;1.25;;;5.60;65.60;;;;;;5112647;28;20020;-86
2021/04/08 00:58:08;;;;;;;2.40;1.35;;;5.60;65.40;;;;;;5095990;28;20047;-85
2021/04/08 01:00:38;;;;;;;1.95;1.30;;;5.60;65.40;;;;;;5096066;27;20594;-86
2021/04/08 01:03:07;;;;;;;2.67;1.80;;;5.60;65.50;;;;;;5115401;28;20126;-85
2021/04/08 01:05:32;;;;;;;1.50;1.40;;;5.50;65.50;;;;;;5112811;28;20030;-85
2021/04/08 01:07:59;;;;;;;3.28;1.73;;;5.60;65.50;;;;;;5095202;28;20031;-85
2021/04/08 01:10:25;;;;;;;2.60;1.67;;;5.60;65.60;;;;;;5113191;27;20080;-85
2021/04/08 01:12:54;;;;;;;2.15;1.50;;;5.60;65.60;;;;;;5116918;28;20027;-85
2021/04/08 01:15:21;;;;;;;1.77;1.30;;;5.50;65.50;;;;;;5126496;27;20053;-85
2021/04/08 01:18:01;;;;;;;1.92;1.20;;;5.50;65.50;;;;;;5104698;28;20020;-85
2021/04/08 01:20:54;;;;;;;1.30;1.20;;;5.50;65.50;;;;;;5116805;28;20024;-85
2021/04/08 01:23:50;;;;;;;1.50;1.30;;;5.50;65.50;;;;;;5116412;28;20077;-86
2021/04/08 01:27:10;;;;;;;1.67;1.40;;;5.50;65.50;;;;;;5116817;28;20168;-85
2021/04/08 01:30:03;;;;;;;1.98;1.20;;;5.50;65.60;;;;;;5057628;28;20071;-85
2021/04/08 01:32:34;;;;;;;1.83;1.48;;;5.40;65.50;;;;;;5115497;28;20118;-85
2021/04/08 01:35:04;;;;;;;1.40;1.30;;;5.40;65.40;;;;;;5116068;28;20023;-85
2021/04/08 01:37:39;;;;;;;1.42;1.30;;;5.40;66.20;;;;;;5120984;27;20020;-85
2021/04/08 01:40:07;;;;;;;2.95;1.48;;;5.40;65.60;;;;;;5116315;28;20038;-85
2021/04/08 01:42:33;;;;;;;1.88;1.65;;;5.40;65.60;;;;;;5116199;27;20035;-85
2021/04/08 01:45:01;;;;;;;2.67;1.52;;;5.30;65.50;;;;;;5099444;27;20031;-85
2021/04/08 01:47:29;;;;;;;2.53;1.55;;;5.40;65.60;;;;;;5099823;28;20468;-85
2021/04/08 01:49:56;;;;;;;2.08;1.27;;;5.30;65.60;;;;;;5099164;28;20468;-85
2021/04/08 01:52:23;;;;;;;1.40;1.30;;;5.30;65.60;;;;;;5106243;28;20476;-85
2021/04/08 01:54:53;;;;;;;2.10;1.50;;;5.30;65.60;;;;;;5099275;28;20478;-86
2021/04/08 01:57:20;;;;;;;1.50;1.40;;;5.30;65.60;;;;;;5099287;28;20032;-85
2021/04/08 01:59:46;;;;;;;3.67;1.80;;;5.30;65.60;;;;;;5116473;28;20490;-86
2021/04/08 02:02:13;;;;;;;1.52;1.42;;;5.30;65.60;;;;;;5115885;28;20028;-85
2021/04/08 02:04:40;;;;;;;2.33;1.70;;;5.30;65.60;;;;;;5086375;28;20383;-86
2021/04/08 02:07:07;;;;;;;1.80;1.45;;;5.30;65.70;;;;;;5121868;27;20023;-86
2021/04/08 02:09:36;;;;;;;2.03;1.40;;;5.30;65.60;;;;;;5098898;28;20090;-85
2021/04/08 02:12:04;;;;;;;1.90;1.38;;;5.30;65.70;;;;;;5115743;28;20027;-85
2021/04/08 02:14:30;;;;;;;2.80;1.70;;;5.30;65.70;;;;;;5116338;27;20417;-85
2021/04/08 02:16:57;;;;;;;1.90;1.60;;;5.30;65.70;;;;;;5115619;28;20020;-85
2021/04/08 02:19:25;;;;;;;4.20;1.60;;;5.30;65.70;;;;;;5115818;28;20035;-86
2021/04/08 02:21:51;;;;;;;1.48;1.38;;;5.30;65.70;;;;;;5104206;28;20019;-85
2021/04/08 02:24:20;;;;;;;1.67;1.30;;;5.30;65.70;;;;;;5078931;28;20043;-86
2021/04/08 02:26:46;;;;;;;2.03;1.58;;;5.30;65.70;;;;;;5095907;28;20522;-86
2021/04/08 02:29:15;;;;;;;1.60;1.50;;;5.30;65.70;;;;;;5115239;28;20027;-86
2021/04/08 02:31:42;;;;;;;2.00;1.50;;;5.30;65.70;;;;;;5115621;28;20020;-85
2021/04/08 02:34:10;;;;;;;1.63;1.48;;;5.20;65.70;;;;;;5098387;28;20126;-85
2021/04/08 02:36:37;;;;;;;2.72;1.48;;;5.20;65.70;;;;;;5106095;27;20504;-85
2021/04/08 02:39:07;;;;;;;1.60;1.50;;;5.20;65.70;;;;;;5112632;28;20066;-85
2021/04/08 02:41:46;;;;;;;2.20;1.55;;;5.20;65.70;;;;;;5115635;28;20422;-85
2021/04/08 02:44:15;;;;;;;2.25;1.40;;;5.20;65.80;;;;;;5095583;28;20037;-85
2021/04/08 02:46:41;;;;;;;1.60;1.50;;;5.20;65.70;;;;;;5114067;28;20050;-85
2021/04/08 02:49:08;;;;;;;1.60;1.50;;;5.20;65.70;;;;;;5114069;27;20032;-85
2021/04/08 02:51:56;;;;;;;1.45;1.35;;;5.20;65.70;;;;;;5087235;28;20442;-86
2021/04/08 02:54:59;;;;;;;1.88;1.50;;;5.20;65.90;;;;;;5115170;27;20028;-85
2021/04/08 02:57:32;;;;;;;2.30;1.45;;;5.20;65.80;;;;;;5069953;28;20047;-85
2021/04/08 03:00:08;;;;;;;2.35;1.50;;;5.20;65.70;;;;;;5115017;28;20034;-85
2021/04/08 03:02:37;;;;;;;1.40;1.30;;;5.20;65.80;;;;;;5126975;27;20036;-85
2021/04/08 03:05:07;;;;;;;1.67;1.50;;;5.20;65.80;;;;;;5117065;27;20020;-85
2021/04/08 03:07:47;;;;;;;3.40;1.40;;;5.20;65.80;;;;;;5103474;28;20020;-85
2021/04/08 03:10:15;;;;;;;1.45;1.35;;;5.20;65.90;;;;;;5113996;28;20040;-85
2021/04/08 03:12:53;;;;;;;1.45;1.30;;;5.20;65.80;;;;;;5100735;28;20464;-85
2021/04/08 03:15:25;;;;;;;1.45;1.35;;;5.20;65.80;;;;;;5101097;28;20391;-85
2021/04/08 03:17:52;;;;;;;1.50;1.40;;;5.20;65.80;;;;;;5114858;28;20031;-84
2021/04/08 03:20:18;;;;;;;2.03;1.80;;;5.20;65.80;;;;;;5111995;28;20023;-85
2021/04/08 03:22:45;;;;;;;1.50;1.40;;;5.20;65.80;;;;;;5114519;28;20043;-85
2021/04/08 03:25:12;;;;;;;1.40;1.30;;;5.20;65.80;;;;;;5099126;28;20049;-85
2021/04/08 03:27:40;;;;;;;1.88;1.35;;;5.20;65.80;;;;;;5097652;28;20115;-84
2021/04/08 03:30:15;;;;;;;1.30;1.13;;;5.30;65.90;;;;;;5114140;28;20070;-85
2021/04/08 03:32:42;;;;;;;1.35;1.25;;;5.30;65.90;;;;;;5113624;28;20028;-85
2021/04/08 03:35:11;;;;;;;1.80;1.40;;;5.30;65.80;;;;;;5113749;28;20040;-84
2021/04/08 03:37:37;;;;;;;1.90;1.73;;;5.20;65.80;;;;;;5101014;27;20139;-85
2021/04/08 03:40:04;;;;;;;2.35;1.73;;;5.20;65.80;;;;;;5119592;27;20055;-85
2021/04/08 03:42:31;;;;;;;1.50;1.40;;;5.20;65.80;;;;;;5114292;28;20035;-85
2021/04/08 03:44:57;;;;;;;1.50;1.40;;;5.20;65.90;;;;;;5114022;28;20533;-85
2021/04/08 03:47:24;;;;;;;1.40;1.17;;;5.30;65.90;;;;;;5097222;28;20032;-85
2021/04/08 03:49:52;;;;;;;2.35;1.33;;;5.20;65.80;;;;;;5096645;28;20026;-85
2021/04/08 03:52:19;;;;;;;1.40;1.33;;;5.20;65.80;;;;;;5110570;28;20028;-85
2021/04/08 03:54:49;;;;;;;1.58;1.48;;;5.20;65.80;;;;;;5094387;28;20050;-85
2021/04/08 03:57:18;;;;;;;1.40;1.30;;;5.30;65.90;;;;;;5112893;28;20165;-85
2021/04/08 03:59:45;;;;;;;1.80;1.25;;;5.30;65.90;;;;;;5113412;28;20019;-85
2021/04/08 04:02:13;;;;;;;2.13;1.40;;;5.20;65.80;;;;;;5093612;28;20028;-86
2021/04/08 04:04:41;;;;;;;2.08;1.50;;;5.30;65.90;;;;;;5113324;28;20016;-83
2021/04/08 04:07:07;;;;;;;1.55;1.45;;;5.30;65.90;;;;;;5113375;27;20027;-85
2021/04/08 04:09:33;;;;;;;1.42;1.33;;;5.30;65.90;;;;;;5110478;28;20044;-86
2021/04/08 04:12:01;;;;;;;1.52;1.40;;;5.30;65.90;;;;;;5096325;28;20037;-86
2021/04/08 04:14:29;;;;;;;1.30;1.30;;;5.20;65.90;;;;;;5113233;28;20110;-85
2021/04/08 04:16:56;;;;;;;1.25;1.17;;;5.30;65.90;;;;;;5110851;28;20028;-85
2021/04/08 04:19:26;;;;;;;1.60;1.50;;;5.30;65.90;;;;;;5113347;28;20046;-86
2021/04/08 04:21:53;;;;;;;1.40;1.30;;;5.30;65.90;;;;;;5113425;28;20471;-86
2021/04/08 04:24:19;;;;;;;1.60;1.38;;;5.20;65.80;;;;;;5112895;28;20028;-85
2021/04/08 04:26:46;;;;;;;1.75;1.27;;;5.30;65.90;;;;;;5119218;27;20023;-85
2021/04/08 04:29:12;;;;;;;1.38;1.27;;;5.30;65.90;;;;;;5096238;28;20030;-85
2021/04/08 04:31:39;;;;;;;1.50;1.40;;;5.30;65.90;;;;;;5119032;27;20023;-85
2021/04/08 04:34:05;;;;;;;2.03;1.45;;;5.30;65.90;;;;;;5113027;28;20059;-86
2021/04/08 04:36:34;;;;;;;2.08;1.42;;;5.30;65.90;;;;;;5119086;27;20528;-86
2021/04/08 04:39:02;;;;;;;1.80;1.40;;;5.30;65.90;;;;;;5100423;28;20030;-86
2021/04/08 04:41:28;;;;;;;1.40;1.27;;;5.30;65.90;;;;;;5089543;27;20027;-86
2021/04/08 04:43:54;;;;;;;1.20;1.20;;;5.30;65.90;;;;;;5102773;28;20028;-86
2021/04/08 04:46:20;;;;;;;1.63;1.52;;;5.30;65.90;;;;;;5114885;28;20035;-86
2021/04/08 04:48:46;;;;;;;1.45;1.35;;;5.30;65.90;;;;;;5100980;28;20026;-85
2021/04/08 04:51:11;;;;;;;1.92;1.60;;;5.30;65.90;;;;;;5095937;28;20023;-86
2021/04/08 04:53:37;;;;;;;1.30;1.20;;;5.20;65.80;;;;;;5092964;28;20031;-83
2021/04/08 04:56:03;;;;;;;2.58;1.27;;;5.30;65.90;;;;;;5099803;28;20028;-86
2021/04/08 04:58:29;;;;;;;1.70;1.40;;;5.30;65.90;;;;;;5119298;28;20402;-85
2021/04/08 05:00:55;;;;;;;1.60;1.50;;;5.30;65.90;;;;;;5118150;28;20031;-85
2021/04/08 05:03:21;;;;;;;1.27;1.17;;;5.30;65.90;;;;;;5097502;28;20032;-84
2021/04/08 05:05:46;;;;;;;1.45;1.35;;;5.30;65.90;;;;;;5095523;28;20486;-85
2021/04/08 05:08:13;;;;;;;1.75;1.55;;;5.30;65.90;;;;;;5100365;28;20028;-84
2021/04/08 05:10:38;;;;;;;1.45;1.35;;;5.30;65.90;;;;;;5112402;28;20034;-86
2021/04/08 05:13:04;;;;;;;2.13;1.55;;;5.30;65.90;;;;;;5078375;28;20036;-87
2021/04/08 05:15:30;;;;;;;1.67;1.58;;;5.30;65.90;;;;;;5111815;28;20115;-83
2021/04/08 05:17:56;;;;;;;1.50;1.40;;;5.30;65.90;;;;;;5094634;28;20027;-84
2021/04/08 05:20:21;;;;;;;1.60;1.50;;;5.30;66.00;;;;;;5111808;28;20036;-83
2021/04/08 05:22:47;;;;;;;1.58;1.33;;;5.30;66.00;;;;;;5096189;28;20533;-84
2021/04/08 05:25:13;;;;;;;1.40;1.30;;;5.30;65.90;;;;;;5094990;28;20039;-83
2021/04/08 05:27:39;;;;;;;1.38;1.27;;;5.30;65.90;;;;;;5111986;28;20472;-88
2021/04/08 05:30:05;;;;;;;2.40;1.40;;;5.30;66.00;;;;;;5112254;28;20020;-84
2021/04/08 05:32:31;;;;;;;2.15;1.45;;;5.30;66.00;;;;;;5112062;28;20051;-84
2021/04/08 05:34:57;;;;;;;1.70;1.58;;;5.30;65.90;;;;;;5095175;28;20427;-82
2021/04/08 05:37:23;;;;;;;1.40;1.30;;;5.30;66.00;;;;;;5112157;28;20020;-84
2021/04/08 05:39:48;;;;;;;1.42;1.33;;;5.30;66.00;;;;;;5095482;28;20032;-84
2021/04/08 05:42:14;;;;;;;2.20;1.50;;;5.30;65.90;;;;;;5096240;28;20068;-84
2021/04/08 05:44:40;;;;;;;1.67;1.42;;;5.30;65.90;;;;;;5095435;28;20031;-84
2021/04/08 05:47:06;;;;;;;1.40;1.30;;;5.30;65.90;;;;;;5095245;28;20019;-84
2021/04/08 05:49:31;;;;;;;2.05;1.58;;;5.30;65.90;;;;;;5112173;28;20196;-83
2021/04/08 05:51:57;;;;;;;1.70;1.60;;;5.30;66.00;;;;;;5095378;28;20046;-84
2021/04/08 05:54:23;;;;;;;1.42;1.33;;;5.30;65.90;;;;;;5094578;28;20049;-86
2021/04/08 05:56:49;;;;;;;1.60;1.50;;;5.30;66.00;;;;;;5093862;28;20501;-85
2021/04/08 05:59:14;;;;;;;1.65;1.40;;;5.30;66.60;;;;;;5115663;28;20157;-84
2021/04/08 06:01:40;;;;;;;1.70;1.60;;;5.30;65.90;;;;;;5102508;27;20099;-84
2021/04/08 06:04:06;;;;;;;1.65;1.52;;;5.30;66.00;;;;;;5098749;28;20043;-85
2021/04/08 06:06:32;;;;;;;1.73;1.63;;;5.30;65.90;;;;;;5115757;28;20125;-88
2021/04/08 06:08:57;;;;;;;3.85;1.83;;;5.30;65.90;;;;;;5098091;28;20055;-85
2021/04/08 06:11:23;;;;;;;1.90;1.70;;;5.30;65.90;;;;;;5094837;28;20762;-83
2021/04/08 06:13:50;;;;;;;1.70;1.60;;;5.30;65.90;;;;;;5096351;28;20036;-93
2021/04/08 06:16:16;;;;;;;2.78;1.80;;;5.30;65.90;;;;;;5122703;27;20035;-90
2021/04/08 06:18:41;;;;;;;1.58;1.48;;;5.30;65.90;;;;;;5099075;28;20023;-92
2021/04/08 06:21:07;;;;;;;1.63;1.52;;;5.40;66.00;;;;;;5098775;28;20456;-96
2021/04/08 06:23:33;;;;;;;1.92;1.60;;;5.30;66.00;;;;;;5098558;27;20124;-93
2021/04/08 06:25:59;;;;;;;1.73;1.55;;;5.40;66.00;;;;;;5104857;27;20043;-93
2021/04/08 06:28:25;;;;;;;1.63;1.52;;;5.40;66.00;;;;;;5107331;27;20487;-92
2021/04/08 06:30:50;;;;;;;1.60;1.50;;;5.30;65.90;;;;;;5098917;28;20499;-93
2021/04/08 06:33:16;;;;;;;2.08;1.73;;;5.40;66.00;;;;;;5090716;28;20053;-92
2021/04/08 06:35:42;;;;;;;2.22;1.60;;;5.40;66.00;;;;;;5113913;27;20539;-95
2021/04/08 06:38:08;;;;;;;1.67;1.58;;;5.40;66.00;;;;;;5080013;28;20023;-84
2021/04/08 06:40:35;;;;;;;1.52;1.42;;;5.40;66.00;;;;;;5125233;27;20157;-91
2021/04/08 06:43:02;;;;;;;1.90;1.58;;;5.40;66.00;;;;;;5106337;28;20063;-92
2021/04/08 06:45:33;;;;;;;2.92;1.83;;;5.40;66.00;;;;;;5115440;27;20031;-89
2021/04/08 06:48:23;;;;;;;1.80;1.63;;;5.40;66.00;;;;;;5115245;28;20089;-88
2021/04/08 06:50:53;;;;;;;2.30;1.65;;;5.50;66.10;;;;;;5132218;27;20123;-89
2021/04/08 06:53:19;;;;;;;2.53;1.90;;;5.50;66.00;;;;;;5114336;28;20118;-91
2021/04/08 06:55:47;;;;;;;2.88;2.00;;;5.40;65.90;;;;;;5095119;28;20038;-92
2021/04/08 06:58:16;;;;;;;2.70;1.90;;;5.50;66.00;;;;;;5114693;28;20031;-92
2021/04/08 07:00:42;;;;;;;1.85;1.70;;;5.40;65.90;;;;;;5115468;27;20035;-91
2021/04/08 07:03:09;;;;;;;2.85;1.80;;;5.50;65.90;;;;;;5094701;28;20467;-92
2021/04/08 07:05:37;;;;;;;2.90;2.00;;;5.50;65.90;;;;;;5096040;28;20032;-92
2021/04/08 07:08:04;;;;;;;1.95;1.77;;;5.50;65.90;;;;;;5097765;28;20024;-90
2021/04/08 07:10:29;;;;;;;2.03;1.70;;;5.50;65.90;;;;;;5097458;28;20399;-91
2021/04/08 07:12:56;;;;;;;1.95;1.73;;;5.50;65.90;;;;;;5080530;28;20043;-91
2021/04/08 07:15:23;;;;;;;2.33;1.70;;;5.50;65.90;;;;;;5097861;27;20031;-92
2021/04/08 07:17:49;;;;;;;1.90;1.70;;;5.50;65.90;;;;;;5116960;27;20032;-93
2021/04/08 07:20:15;;;;;;;3.05;2.00;;;5.50;65.90;;;;;;5094522;28;20032;-92
2021/04/08 07:22:41;;;;;;;2.90;2.05;;;5.50;65.80;;;;;;5108975;28;20089;-87
2021/04/08 07:25:33;;;;;;;2.50;1.70;;;5.60;65.90;;;;;;5097415;28;20020;-83
2021/04/08 07:27:59;;;;;;;2.08;1.70;;;5.60;66.00;;;;;;5106696;27;20047;-91
2021/04/08 07:30:26;;;;;;;1.98;1.80;;;5.50;65.80;;;;;;5097604;28;20046;-86
2021/04/08 07:33:01;;;;;;;2.13;1.80;;;5.60;65.90;;;;;;5097366;28;20031;-84
2021/04/08 07:35:40;;;;;;;2.60;1.88;;;5.60;66.00;;;;;;5097192;28;20024;-91
2021/04/08 07:38:07;;;;;;;2.00;1.77;;;5.60;66.00;;;;;;5113595;28;20404;-89
2021/04/08 07:40:33;;;;;;;1.95;1.85;;;5.60;65.90;;;;;;5127384;27;20028;-90
2021/04/08 07:43:14;;;;;;;2.20;1.73;;;5.60;65.90;;;;;;5096919;28;20445;-90
2021/04/08 07:45:40;;;;;;;3.03;1.88;;;5.60;66.00;;;;;;5114035;28;20023;-89
2021/04/08 07:48:07;;;;;;;1.92;1.70;;;5.70;65.90;;;;;;5097052;28;20051;-89
2021/04/08 07:50:36;;;;;;;2.50;1.80;;;5.70;66.00;;;;;;5110424;28;20044;-90
2021/04/08 07:53:02;;;;;;;2.25;1.77;;;5.70;66.00;;;;;;5121247;27;20024;-90
2021/04/08 07:55:28;;;;;;;2.35;1.70;;;5.70;66.00;;;;;;5109897;28;20046;-91
2021/04/08 07:58:14;;;;;;;2.95;1.70;;;5.80;66.00;;;;;;5113794;28;20020;-90
2021/04/08 08:00:44;;;;;;;2.03;1.80;;;5.80;66.10;;;;;;5114391;27;20035;-91
2021/04/08 08:03:25;;;;;;;2.75;1.90;;;5.80;66.00;;;;;;5113655;28;20048;-92
2021/04/08 08:05:52;;;;;;;1.92;1.70;;;5.80;66.10;;;;;;5114050;28;20034;-87
2021/04/08 08:08:20;;;;;;;1.98;1.77;;;5.80;66.00;;;;;;5122599;27;20020;-91
2021/04/08 08:11:05;;;;;;;2.15;1.65;;;5.90;66.00;;;;;;5113403;28;20050;-91
2021/04/08 08:13:51;;;;;;;2.25;1.73;;;5.90;66.10;;;;;;5114610;28;20016;-90
2021/04/08 08:16:20;;;;;;;2.53;1.83;;;5.90;65.90;;;;;;5113946;28;20073;-91
2021/04/08 08:18:47;;;;;;;3.85;2.22;;;6.00;66.00;;;;;;5113829;28;20015;-90
2021/04/08 08:21:14;;;;;;;1.80;1.67;;;6.00;66.00;;;;;;5098977;27;20736;-91
2021/04/08 08:23:47;;;;;;;2.45;2.10;;;6.00;66.00;;;;;;5090624;28;20134;-89
2021/04/08 08:26:35;;;;;;;3.08;1.63;;;6.10;66.00;;;;;;5123376;27;20037;-90
2021/04/08 08:29:16;;;;;;;2.42;1.77;;;6.10;66.10;;;;;;5118477;27;20028;-89
2021/04/08 08:31:46;;;;;;;3.22;2.08;;;6.10;66.00;;;;;;5113465;28;20023;-91
2021/04/08 08:34:16;;;;;;;2.30;1.80;;;6.20;66.00;;;;;;5113254;28;20031;-88
2021/04/08 08:36:46;;;;;;;2.25;1.80;;;6.20;66.00;;;;;;5114669;27;20107;-90
2021/04/08 08:39:16;;;;;;;2.08;1.88;;;6.20;66.00;;;;;;5113995;28;20027;-90
2021/04/08 08:41:42;;;;;;;4.30;2.30;;;6.20;65.90;;;;;;5113939;28;20384;-89
2021/04/08 08:44:10;;;;;;;2.13;1.83;;;6.30;65.90;;;;;;5093490;28;20032;-89
2021/04/08 08:47:08;;;;;;;2.55;2.08;;;6.30;66.00;;;;;;5106246;28;20133;-89
2021/04/08 08:49:45;;;;;;;2.58;2.00;;;6.40;66.00;;;;;;5101940;28;20081;-90
2021/04/08 08:52:16;;;;;;;2.53;1.90;;;6.40;65.80;;;;;;5125522;27;20490;-88
2021/04/08 08:54:43;;;;;;;2.58;1.83;;;6.50;65.80;;;;;;5113517;28;20162;-92
2021/04/08 08:57:09;;;;;;;2.80;2.08;;;6.50;65.80;;;;;;5127175;27;20108;-90
2021/04/08 08:59:35;;;;;;;1.70;1.50;;;6.50;65.70;;;;;;5095841;28;20426;-91
2021/04/08 09:02:01;;;;;;;2.67;1.95;;;6.60;65.70;;;;;;5089977;28;20107;-92
2021/04/08 09:04:28;;;;;;;1.88;1.75;;;6.60;65.70;;;;;;5113164;28;20046;-85
2021/04/08 09:06:59;;;;;;;3.78;2.08;;;6.70;66.30;;;;;;5112770;28;20028;-86
2021/04/08 09:09:28;;;;;;;2.13;1.90;;;6.70;65.60;;;;;;5112764;28;20043;-85
2021/04/08 09:11:54;;;;;;;2.10;1.80;;;6.80;65.50;;;;;;5112586;28;20028;-86
2021/04/08 09:14:20;;;;;;;2.25;2.00;;;6.80;66.10;;;;;;5112838;28;20059;-86
2021/04/08 09:16:49;;;;;;;2.08;1.88;;;6.80;65.40;;;;;;5092038;28;20024;-85
2021/04/08 09:19:31;;;;;;;3.10;2.13;;;6.90;65.40;;;;;;5103958;28;20085;-85
2021/04/08 09:22:07;;;;;;;1.77;1.67;;;7.00;65.40;;;;;;5095444;28;20024;-86
2021/04/08 09:24:35;;;;;;;2.67;1.90;;;7.10;65.40;;;;;;5099081;28;20109;-85
2021/04/08 09:27:02;;;;;;;2.72;2.10;;;7.10;65.30;;;;;;5111872;28;20028;-85
2021/04/08 09:29:34;;;;;;;3.38;2.20;;;7.10;65.30;;;;;;5112628;28;20043;-86
2021/04/08 09:32:24;;;;;;;2.45;1.92;;;7.20;65.40;;;;;;5131798;27;20066;-84
2021/04/08 09:35:07;;;;;;;2.72;2.00;;;7.20;65.30;;;;;;5116237;28;20024;-86
2021/04/08 09:37:49;;;;;;;3.38;2.22;;;7.30;65.30;;;;;;5109006;27;20024;-86
2021/04/08 09:40:24;;;;;;;2.40;2.05;;;7.30;65.30;;;;;;5112603;28;20024;-87
2021/04/08 09:43:00;;;;;;;2.67;1.77;;;7.30;65.20;;;;;;5123333;27;20036;-85
2021/04/08 09:45:27;;;;;;;3.58;2.20;;;7.40;65.20;;;;;;5114156;28;20020;-86
2021/04/08 09:48:19;;;;;;;2.53;2.05;;;7.40;65.10;;;;;;5095793;28;20031;-86
2021/04/08 09:50:59;;;;;;;3.80;1.98;;;7.50;65.30;;;;;;5137211;27;20027;-87
2021/04/08 09:53:54;;;;;;;2.28;1.98;;;7.50;65.10;;;;;;5106635;28;20058;-85
2021/04/08 09:56:42;;;;;;;2.20;1.77;;;7.60;65.20;;;;;;5114138;28;20038;-85
2021/04/08 09:59:09;;;;;;;2.47;2.10;;;7.70;65.10;;;;;;5101732;28;20042;-84
2021/04/08 10:01:34;;;;;;;3.75;2.10;;;7.70;65.00;;;;;;5116114;28;20156;-86
2021/04/08 10:04:21;;;;;;;3.22;2.20;;;7.80;65.00;;;;;;5115846;28;20126;-86
2021/04/08 10:07:05;;;;;;;3.03;2.20;;;7.90;65.10;;;;;;5116925;27;20407;-86
2021/04/08 10:09:31;;;;;;;2.50;2.25;;;8.00;65.00;;;;;;5097847;28;20084;-86
2021/04/08 10:11:57;;;;;;;3.25;2.13;;;8.00;64.80;;;;;;5106801;28;20035;-86
2021/04/08 10:14:29;;;;;;;2.78;2.25;;;8.10;65.50;;;;;;5115899;28;20055;-85
2021/04/08 10:17:17;;;;;;;3.08;2.47;;;8.20;64.90;;;;;;5121795;27;20027;-86
2021/04/08 10:19:44;;;;;;;2.22;1.92;;;8.20;64.80;;;;;;5103833;28;20032;-86
2021/04/08 10:22:11;;;;;;;3.67;2.33;;;8.30;64.70;;;;;;5123655;27;20024;-86
2021/04/08 10:24:42;;;;;;;3.22;2.33;;;8.40;64.80;;;;;;5122203;27;20047;-85
2021/04/08 10:27:21;;;;;;;3.33;2.20;;;8.50;64.80;;;;;;5115886;28;20031;-86
2021/04/08 10:29:48;;;;;;;2.78;2.30;;;8.50;64.70;;;;;;5114972;28;20067;-85
2021/04/08 10:32:29;;;;;;;4.95;2.75;;;8.60;64.60;;;;;;5115410;28;20372;-87
2021/04/08 10:34:55;;;;;;;4.28;2.47;;;8.70;64.70;;;;;;5115191;28;20349;-85
2021/04/08 10:37:21;;;;;;;2.50;2.30;;;8.80;64.60;;;;;;5109058;28;20057;-85
2021/04/08 10:39:47;;;;;;;3.15;2.53;;;8.80;64.50;;;;;;5098131;28;20030;-86
2021/04/08 10:42:14;;;;;;;4.22;2.88;;;8.90;64.60;;;;;;5100355;27;20023;-86
2021/04/08 10:44:41;;;;;;;2.88;2.33;;;9.00;64.60;;;;;;5124517;27;20111;-85
2021/04/08 10:47:08;;;;;;;4.43;2.60;;;9.00;64.50;;;;;;5114938;28;20066;-86
2021/04/08 10:49:55;;;;;;;3.42;2.60;;;9.10;64.50;;;;;;5116405;28;20020;-85
2021/04/08 10:52:24;;;;;;;3.42;2.40;;;9.20;64.50;;;;;;5115111;28;20026;-86
2021/04/08 10:54:52;;;;;;;4.18;2.72;;;9.20;64.40;;;;;;5115178;28;20124;-85
2021/04/08 10:57:19;;;;;;;3.22;2.67;;;9.20;64.30;;;;;;5115130;28;20118;-85
2021/04/08 10:59:47;;;;;;;5.32;2.70;;;9.30;64.30;;;;;;5114727;28;20020;-84
2021/04/08 11:02:22;;;;;;;3.75;2.85;;;9.30;64.30;;;;;;5114576;27;20028;-85
2021/04/08 11:04:48;;;;;;;;;;;9.40;64.30;;;;;;5124325;27;20054;-86
2021/04/08 11:07:14;;;;;;;4.18;2.70;;;9.40;64.20;;;;;;5100237;28;19915;-85
2021/04/08 11:09:40;;;;;;;3.25;2.42;;;9.50;64.00;;;;;;5093984;28;20044;-85
2021/04/08 11:12:20;;;;;;;2.75;2.47;;;9.50;64.00;;;;;;5098209;28;20044;-85
2021/04/08 11:14:52;;;;;;;3.85;2.88;;;9.60;64.10;;;;;;5108374;28;20034;-86
2021/04/08 11:17:21;;;;;;;4.13;2.97;;;9.60;64.00;;;;;;5108404;27;20103;-85
2021/04/08 11:19:48;;;;;;;4.25;2.83;;;9.70;64.10;;;;;;5114079;28;20020;-84
2021/04/08 11:22:16;;;;;;;4.10;2.80;;;9.80;64.00;;;;;;5097379;28;20032;-85
2021/04/08 11:24:43;;;;;;;3.33;2.72;;;9.80;63.90;;;;;;5114038;28;20460;-84
2021/04/08 11:27:09;;;;;;;3.50;2.78;;;9.90;63.90;;;;;;5115515;27;20480;-85
2021/04/08 11:29:35;;;;;;;4.05;3.13;;;9.90;63.90;;;;;;5097176;28;20031;-85
2021/04/08 11:32:09;;;;;;;3.28;2.60;;;10.00;63.80;;;;;;5127824;27;20031;-82
2021/04/08 11:34:49;;;;;;;5.13;3.17;;;10.00;63.80;;;;;;5114040;28;20024;-85
2021/04/08 11:37:17;;;;;;;4.80;2.90;;;10.10;64.30;;;;;;5099719;28;20119;-84
2021/04/08 11:39:44;;;;;;;4.32;3.28;;;10.20;63.60;;;;;;5113955;28;20042;-84
2021/04/08 11:42:18;;;;;;;3.95;3.15;;;10.20;63.50;;;;;;5113594;28;20051;-85
2021/04/08 11:44:44;;;;;;;5.05;3.22;;;10.30;63.50;;;;;;5115715;27;20040;-84
2021/04/08 11:47:11;;;;;;;4.47;3.00;;;10.40;63.50;;;;;;5113621;27;20024;-85
2021/04/08 11:49:43;;;;;;;5.43;2.90;;;10.40;63.40;;;;;;5096824;28;20452;-84
2021/04/08 11:52:11;;;;;;;4.25;2.75;;;10.40;63.40;;;;;;5113701;28;20028;-84
2021/04/08 11:55:00;;;;;;;4.50;3.08;;;10.50;63.30;;;;;;5113241;28;20059;-85
2021/04/08 11:57:26;;;;;;;4.47;3.03;;;10.50;63.30;;;;;;5115079;28;20020;-86
2021/04/08 11:59:58;;;;;;;3.70;2.85;;;10.60;63.30;;;;;;5114947;27;20016;-84
2021/04/08 12:02:29;;;;;;;4.35;3.00;;;10.60;63.20;;;;;;5096518;28;20035;-84
2021/04/08 12:04:55;;;;;;;3.75;3.15;;;10.70;63.20;;;;;;5086972;28;20024;-85
2021/04/08 12:07:21;;;;;;;4.57;3.50;;;10.70;63.10;;;;;;5108090;28;20058;-85
2021/04/08 12:09:50;;;;;;;4.45;3.33;;;10.70;63.00;;;;;;5112572;28;20043;-84
2021/04/08 12:12:16;;;;;;;4.63;3.20;;;10.80;63.00;;;;;;5113731;27;20036;-85
2021/04/08 12:15:04;;;;;;;4.65;3.33;;;10.80;63.00;;;;;;5119328;27;20088;-86
2021/04/08 12:17:31;;;;;;;4.80;3.20;;;10.90;63.10;;;;;;5113313;28;20452;-86
2021/04/08 12:20:20;;;;;;;4.50;3.33;;;10.90;62.90;;;;;;5112932;28;20032;-84
2021/04/08 12:22:46;;;;;;;4.50;3.28;;;10.90;63.00;;;;;;5112628;28;20035;-82
2021/04/08 12:25:17;;;;;;;5.07;3.00;;;11.00;62.90;;;;;;5092431;28;20035;-84
2021/04/08 12:27:44;;;;;;;4.65;3.38;;;11.00;62.90;;;;;;5105006;28;20027;-84
2021/04/08 12:30:12;;;;;;;4.72;3.65;;;11.10;63.00;;;;;;5096948;28;20028;-87
2021/04/08 12:32:39;;;;;;;4.53;3.45;;;11.10;62.90;;;;;;5096155;28;20035;-85
2021/04/08 12:35:07;;;;;;;5.30;3.60;;;11.10;62.90;;;;;;5112382;28;20019;-85
2021/04/08 12:37:32;;;;;;;4.35;3.05;;;11.20;62.90;;;;;;5092622;28;20455;-84
2021/04/08 12:39:58;;;;;;;3.70;3.17;;;11.20;62.80;;;;;;5110153;27;20060;-83
2021/04/08 12:42:25;;;;;;;4.47;3.50;;;11.20;62.70;;;;;;5096252;28;20035;-84
2021/04/08 12:44:51;;;;;;;4.63;3.50;;;11.30;62.80;;;;;;5096926;28;20086;-84
2021/04/08 12:47:19;;;;;;;4.15;3.45;;;11.30;62.70;;;;;;5092036;28;20481;-83
2021/04/08 12:49:45;;;;;;;4.60;3.75;;;11.40;62.70;;;;;;5102527;28;20030;-83
2021/04/08 12:52:10;;;;;;;5.75;3.67;;;11.40;62.60;;;;;;5112306;28;20035;-84
2021/04/08 12:54:36;;;;;;;4.47;3.65;;;11.40;62.60;;;;;;5114661;27;20108;-84
2021/04/08 12:57:03;;;;;;;4.95;3.65;;;11.40;62.50;;;;;;5096277;28;20349;-85
2021/04/08 12:59:29;;;;;;;4.70;3.58;;;11.50;62.50;;;;;;5112511;28;20222;-85
2021/04/08 13:01:55;;;;;;;4.88;3.88;;;11.50;62.50;;;;;;5112414;28;20468;-84
2021/04/08 13:04:20;;;;;;;4.82;4.18;;;11.50;62.40;;;;;;5112151;28;20039;-84
2021/04/08 13:06:46;;;;;;;5.15;4.10;;;11.60;62.40;;;;;;5118739;27;20031;-84
2021/04/08 13:09:12;;;;;;;4.97;3.60;;;11.60;62.40;;;;;;5105064;27;20048;-84